createdAt,value
2017-01-30T00:00:04.024Z,0
2017-01-30T00:00:44.506Z,0
2017-01-30T00:01:25.015Z,0
2017-01-30T00:02:05.507Z,0
2017-01-30T00:02:46.007Z,0
2017-01-30T00:03:26.518Z,0
2017-01-30T00:04:07.039Z,0
2017-01-30T00:04:47.509Z,0
2017-01-30T00:05:28.017Z,0
2017-01-30T00:06:08.514Z,0
2017-01-30T00:06:49.024Z,0
2017-01-30T00:07:29.502Z,0
2017-01-30T00:08:10.219Z,0
2017-01-30T00:08:50.738Z,0
2017-01-30T00:09:31.201Z,0
2017-01-30T00:10:11.691Z,0
2017-01-30T00:10:52.141Z,0
2017-01-30T00:11:32.644Z,0
2017-01-30T00:12:13.160Z,0
2017-01-30T00:12:53.675Z,0
2017-01-30T00:13:34.164Z,0
2017-01-30T00:14:14.672Z,0
2017-01-30T00:14:55.171Z,0
2017-01-30T00:15:35.632Z,0
2017-01-30T00:16:16.112Z,0
2017-01-30T00:16:56.624Z,0
2017-01-30T00:17:37.121Z,0
2017-01-30T00:18:17.623Z,0
2017-01-30T00:18:58.108Z,0
2017-01-30T00:19:38.662Z,0
2017-01-30T00:20:19.132Z,0
2017-01-30T00:20:59.649Z,0
2017-01-30T00:21:40.108Z,0
2017-01-30T00:22:20.650Z,0
2017-01-30T00:23:01.102Z,0
2017-01-30T00:23:41.595Z,0
2017-01-30T00:24:22.114Z,0
2017-01-30T00:25:02.602Z,0
2017-01-30T00:25:43.117Z,0
2017-01-30T00:26:23.599Z,0
2017-01-30T00:27:04.084Z,0
2017-01-30T00:27:44.618Z,0
2017-01-30T00:28:25.059Z,0
2017-01-30T00:29:05.560Z,0
2017-01-30T00:29:46.047Z,0
2017-01-30T00:30:26.570Z,0
2017-01-30T00:31:07.091Z,0
2017-01-30T00:31:47.556Z,0
2017-01-30T00:32:28.030Z,0
2017-01-30T00:33:08.542Z,0
2017-01-30T00:33:49.041Z,0
2017-01-30T00:34:29.539Z,0
2017-01-30T00:35:10.015Z,0
2017-01-30T00:35:50.467Z,0
2017-01-30T00:36:30.966Z,0
2017-01-30T00:37:11.447Z,0
2017-01-30T00:37:51.939Z,0
2017-01-30T00:38:32.453Z,0
2017-01-30T00:39:12.935Z,0
2017-01-30T00:39:53.400Z,0
2017-01-30T00:40:33.863Z,0
2017-01-30T00:41:14.374Z,0
2017-01-30T00:41:54.831Z,0
2017-01-30T00:42:35.341Z,0
2017-01-30T00:43:15.857Z,0
2017-01-30T00:43:56.344Z,0
2017-01-30T00:44:36.843Z,0
2017-01-30T00:45:17.304Z,0
2017-01-30T00:45:57.801Z,0
2017-01-30T00:46:38.282Z,0
2017-01-30T00:47:18.764Z,0
2017-01-30T00:47:59.258Z,0
2017-01-30T00:48:39.733Z,0
2017-01-30T00:49:20.196Z,0
2017-01-30T00:50:00.689Z,0
2017-01-30T00:50:41.189Z,0
2017-01-30T00:51:21.673Z,0
2017-01-30T00:52:02.182Z,0
2017-01-30T00:52:42.613Z,0
2017-01-30T00:53:23.100Z,0
2017-01-30T00:54:03.587Z,0
2017-01-30T00:54:44.066Z,0
2017-01-30T00:55:24.538Z,0
2017-01-30T00:56:05.021Z,0
2017-01-30T00:56:45.524Z,0
2017-01-30T00:57:26.020Z,0
2017-01-30T00:58:06.546Z,0
2017-01-30T00:58:47.009Z,0
2017-01-30T00:59:27.495Z,0
2017-01-30T01:00:07.966Z,0
2017-01-30T01:00:48.487Z,0
2017-01-30T01:01:29.011Z,0
2017-01-30T01:02:09.473Z,0
2017-01-30T01:02:49.959Z,0
2017-01-30T01:03:30.478Z,0
2017-01-30T01:04:10.941Z,0
2017-01-30T01:04:51.430Z,0
2017-01-30T01:05:31.921Z,0
2017-01-30T01:06:12.425Z,0
2017-01-30T01:06:52.946Z,0
2017-01-30T01:07:33.431Z,0
2017-01-30T01:08:13.914Z,0
2017-01-30T01:08:54.432Z,0
2017-01-30T01:09:34.927Z,0
2017-01-30T01:10:15.429Z,0
2017-01-30T01:10:55.912Z,0
2017-01-30T01:11:36.415Z,0
2017-01-30T01:12:16.945Z,0
2017-01-30T01:12:57.422Z,0
2017-01-30T01:13:37.915Z,0
2017-01-30T01:14:18.369Z,0
2017-01-30T01:14:58.862Z,0
2017-01-30T01:15:39.392Z,0
2017-01-30T01:16:19.872Z,0
2017-01-30T01:17:00.355Z,0
2017-01-30T01:17:40.888Z,0
2017-01-30T01:18:21.326Z,0
2017-01-30T01:19:01.835Z,0
2017-01-30T01:19:42.353Z,0
2017-01-30T01:20:22.804Z,0
2017-01-30T01:21:03.295Z,0
2017-01-30T01:21:43.812Z,0
2017-01-30T01:22:24.311Z,0
2017-01-30T01:23:04.812Z,0
2017-01-30T01:23:45.298Z,0
2017-01-30T01:24:25.769Z,0
2017-01-30T01:25:06.255Z,0
2017-01-30T01:25:46.734Z,0
2017-01-30T01:26:27.284Z,0
2017-01-30T01:27:07.765Z,0
2017-01-30T01:27:48.227Z,0
2017-01-30T01:28:28.747Z,0
2017-01-30T01:29:09.226Z,0
2017-01-30T01:29:49.718Z,0
2017-01-30T01:30:30.269Z,0
2017-01-30T01:31:10.777Z,0
2017-01-30T01:31:51.205Z,0
2017-01-30T01:32:31.704Z,0
2017-01-30T01:33:12.138Z,0
2017-01-30T01:33:52.710Z,0
2017-01-30T01:34:33.088Z,0
2017-01-30T01:35:13.587Z,0
2017-01-30T01:35:54.126Z,0
2017-01-30T01:36:34.608Z,0
2017-01-30T01:37:15.111Z,0
2017-01-30T01:37:55.585Z,0
2017-01-30T01:38:36.105Z,0
2017-01-30T01:39:16.570Z,0
2017-01-30T01:39:57.083Z,0
2017-01-30T01:40:37.602Z,0
2017-01-30T01:41:18.175Z,0
2017-01-30T01:41:58.647Z,0
2017-01-30T01:42:39.135Z,0
2017-01-30T01:43:19.581Z,0
2017-01-30T01:44:00.049Z,0
2017-01-30T01:44:40.542Z,0
2017-01-30T01:45:21.038Z,0
2017-01-30T01:46:01.525Z,0
2017-01-30T01:46:42.003Z,0
2017-01-30T01:47:22.459Z,0
2017-01-30T01:48:02.987Z,0
2017-01-30T01:48:43.465Z,0
2017-01-30T01:49:23.929Z,0
2017-01-30T01:50:04.417Z,0
2017-01-30T01:50:44.899Z,0
2017-01-30T01:51:25.421Z,0
2017-01-30T01:52:05.935Z,0
2017-01-30T01:52:46.422Z,0
2017-01-30T01:53:26.870Z,0
2017-01-30T01:54:07.404Z,0
2017-01-30T01:54:47.870Z,0
2017-01-30T01:55:28.379Z,0
2017-01-30T01:56:08.886Z,0
2017-01-30T01:56:49.391Z,0
2017-01-30T01:57:29.865Z,0
2017-01-30T01:58:10.383Z,0
2017-01-30T01:58:50.805Z,0
2017-01-30T01:59:31.336Z,0
2017-01-30T02:00:11.863Z,0
2017-01-30T02:00:52.345Z,0
2017-01-30T02:01:32.775Z,0
2017-01-30T02:02:13.250Z,0
2017-01-30T02:02:53.885Z,0
2017-01-30T02:03:34.224Z,0
2017-01-30T02:04:14.747Z,0
2017-01-30T02:04:55.257Z,0
2017-01-30T02:05:35.748Z,0
2017-01-30T02:06:16.243Z,0
2017-01-30T02:06:56.748Z,0
2017-01-30T02:07:37.235Z,0
2017-01-30T02:08:17.701Z,0
2017-01-30T02:08:58.201Z,0
2017-01-30T02:09:38.738Z,0
2017-01-30T02:10:19.227Z,0
2017-01-30T02:10:59.685Z,0
2017-01-30T02:11:40.212Z,0
2017-01-30T02:12:20.698Z,0
2017-01-30T02:13:01.194Z,0
2017-01-30T02:13:41.674Z,0
2017-01-30T02:14:22.181Z,0
2017-01-30T02:15:02.659Z,0
2017-01-30T02:15:43.144Z,0
2017-01-30T02:16:23.588Z,0
2017-01-30T02:17:04.111Z,0
2017-01-30T02:17:44.583Z,0
2017-01-30T02:18:25.128Z,0
2017-01-30T02:19:05.575Z,0
2017-01-30T02:19:46.093Z,0
2017-01-30T02:20:26.556Z,0
2017-01-30T02:21:07.038Z,0
2017-01-30T02:21:47.507Z,0
2017-01-30T02:22:27.991Z,0
2017-01-30T02:23:08.489Z,0
2017-01-30T02:23:48.991Z,0
2017-01-30T02:24:29.529Z,0
2017-01-30T02:25:09.989Z,0
2017-01-30T02:25:50.460Z,0
2017-01-30T02:26:30.961Z,0
2017-01-30T02:27:11.438Z,0
2017-01-30T02:27:51.925Z,0
2017-01-30T02:28:32.393Z,0
2017-01-30T02:29:12.932Z,0
2017-01-30T02:29:53.344Z,0
2017-01-30T02:31:51.040Z,0
2017-01-30T02:32:31.577Z,0
2017-01-30T02:33:12.034Z,0
2017-01-30T02:33:52.567Z,0
2017-01-30T02:34:33.039Z,0
2017-01-30T02:35:13.562Z,0
2017-01-30T02:35:54.094Z,0
2017-01-30T02:36:34.577Z,0
2017-01-30T02:37:15.106Z,0
2017-01-30T02:37:55.643Z,0
2017-01-30T02:38:36.147Z,0
2017-01-30T02:39:16.640Z,0
2017-01-30T02:39:57.126Z,0
2017-01-30T02:40:37.639Z,0
2017-01-30T02:41:18.112Z,0
2017-01-30T02:41:58.586Z,0
2017-01-30T02:42:39.094Z,0
2017-01-30T02:43:19.573Z,0
2017-01-30T02:44:00.082Z,0
2017-01-30T02:44:40.552Z,0
2017-01-30T02:45:21.065Z,0
2017-01-30T02:46:01.537Z,0
2017-01-30T02:46:42.015Z,0
2017-01-30T02:47:22.546Z,0
2017-01-30T02:48:03.001Z,0
2017-01-30T02:50:36.571Z,0
2017-01-30T02:51:17.060Z,0
2017-01-30T02:51:57.572Z,0
2017-01-30T02:52:38.059Z,0
2017-01-30T02:53:18.577Z,0
2017-01-30T02:53:59.050Z,0
2017-01-30T02:54:39.526Z,0
2017-01-30T02:55:20.163Z,0
2017-01-30T02:56:00.657Z,0
2017-01-30T02:56:41.178Z,0
2017-01-30T02:57:21.683Z,0
2017-01-30T02:58:02.159Z,0
2017-01-30T02:58:42.655Z,0
2017-01-30T02:59:23.118Z,0
2017-01-30T03:00:03.596Z,0
2017-01-30T03:00:44.106Z,0
2017-01-30T03:01:24.596Z,0
2017-01-30T03:02:05.147Z,0
2017-01-30T03:02:45.603Z,0
2017-01-30T03:03:26.083Z,0
2017-01-30T03:04:06.631Z,0
2017-01-30T03:04:47.116Z,0
2017-01-30T03:05:27.651Z,0
2017-01-30T03:06:08.115Z,0
2017-01-30T03:06:48.609Z,0
2017-01-30T03:07:29.129Z,0
2017-01-30T03:08:09.651Z,0
2017-01-30T03:08:50.107Z,0
2017-01-30T03:09:30.574Z,0
2017-01-30T03:10:11.091Z,0
2017-01-30T03:10:51.596Z,0
2017-01-30T03:11:32.114Z,0
2017-01-30T03:12:12.584Z,0
2017-01-30T03:12:53.089Z,0
2017-01-30T03:13:33.588Z,0
2017-01-30T03:14:14.162Z,0
2017-01-30T03:14:54.575Z,0
2017-01-30T03:15:35.070Z,0
2017-01-30T03:16:15.572Z,0
2017-01-30T03:16:56.059Z,0
2017-01-30T03:17:36.582Z,0
2017-01-30T03:18:17.057Z,0
2017-01-30T03:18:57.517Z,0
2017-01-30T03:19:38.006Z,0
2017-01-30T03:20:18.503Z,0
2017-01-30T03:20:58.997Z,0
2017-01-30T03:21:39.463Z,0
2017-01-30T03:22:19.944Z,0
2017-01-30T03:23:00.445Z,0
2017-01-30T03:23:40.959Z,0
2017-01-30T03:24:21.484Z,0
2017-01-30T03:25:01.943Z,0
2017-01-30T03:25:42.445Z,0
2017-01-30T03:26:22.936Z,0
2017-01-30T03:27:03.461Z,0
2017-01-30T03:27:43.910Z,0
2017-01-30T03:28:24.428Z,0
2017-01-30T03:29:04.903Z,0
2017-01-30T03:29:45.435Z,0
2017-01-30T03:30:25.912Z,0
2017-01-30T03:31:06.389Z,0
2017-01-30T03:31:46.868Z,0
2017-01-30T03:32:27.407Z,0
2017-01-30T03:33:07.841Z,0
2017-01-30T03:33:48.309Z,0
2017-01-30T03:34:28.829Z,0
2017-01-30T03:35:09.291Z,0
2017-01-30T03:35:49.816Z,0
2017-01-30T03:36:30.295Z,0
2017-01-30T03:37:11.021Z,0
2017-01-30T03:37:51.516Z,0
2017-01-30T03:38:32.020Z,0
2017-01-30T03:39:12.569Z,0
2017-01-30T03:39:53.004Z,0
2017-01-30T03:40:33.573Z,0
2017-01-30T03:41:14.108Z,0
2017-01-30T03:41:54.577Z,0
2017-01-30T03:42:35.185Z,0
2017-01-30T03:43:15.676Z,0
2017-01-30T03:43:56.318Z,0
2017-01-30T03:44:36.665Z,0
2017-01-30T03:45:17.176Z,0
2017-01-30T03:45:57.644Z,0
2017-01-30T03:46:38.112Z,0
2017-01-30T03:47:18.641Z,0
2017-01-30T03:47:59.114Z,0
2017-01-30T03:48:39.566Z,0
2017-01-30T03:49:20.055Z,0
2017-01-30T03:50:00.544Z,0
2017-01-30T03:50:41.021Z,0
2017-01-30T03:51:21.521Z,0
2017-01-30T03:52:02.002Z,0
2017-01-30T03:52:42.474Z,0
2017-01-30T03:53:22.996Z,0
2017-01-30T03:54:03.519Z,0
2017-01-30T03:54:44.058Z,0
2017-01-30T03:55:24.538Z,0
2017-01-30T03:56:05.035Z,0
2017-01-30T03:56:45.493Z,0
2017-01-30T03:57:25.956Z,0
2017-01-30T03:58:06.449Z,0
2017-01-30T03:58:46.964Z,0
2017-01-30T03:59:27.448Z,0
2017-01-30T04:00:07.934Z,0
2017-01-30T04:00:48.455Z,0
2017-01-30T04:01:28.997Z,0
2017-01-30T04:02:09.508Z,0
2017-01-30T04:02:49.990Z,0
2017-01-30T04:03:30.452Z,0
2017-01-30T04:04:10.946Z,0
2017-01-30T04:04:51.432Z,0
2017-01-30T04:05:31.905Z,0
2017-01-30T04:06:12.403Z,0
2017-01-30T04:06:52.900Z,0
2017-01-30T04:07:33.345Z,0
2017-01-30T04:08:13.865Z,0
2017-01-30T04:08:54.334Z,0
2017-01-30T04:09:34.785Z,0
2017-01-30T04:10:15.294Z,0
2017-01-30T04:10:55.748Z,0
2017-01-30T04:11:36.248Z,0
2017-01-30T04:12:16.734Z,0
2017-01-30T04:12:57.220Z,0
2017-01-30T04:13:37.714Z,0
2017-01-30T04:14:18.234Z,0
2017-01-30T04:14:58.692Z,0
2017-01-30T04:15:39.195Z,0
2017-01-30T04:16:19.677Z,0
2017-01-30T04:17:00.157Z,0
2017-01-30T04:17:40.643Z,0
2017-01-30T04:18:21.173Z,0
2017-01-30T04:19:01.641Z,0
2017-01-30T04:19:42.144Z,0
2017-01-30T04:20:22.608Z,0
2017-01-30T04:21:03.079Z,0
2017-01-30T04:21:43.582Z,0
2017-01-30T04:22:24.029Z,0
2017-01-30T04:23:04.528Z,0
2017-01-30T04:23:45.007Z,0
2017-01-30T04:24:25.526Z,0
2017-01-30T04:25:06.010Z,0
2017-01-30T04:25:46.497Z,0
2017-01-30T04:26:27.027Z,0
2017-01-30T04:27:07.473Z,0
2017-01-30T04:27:47.952Z,0
2017-01-30T04:28:28.468Z,0
2017-01-30T04:29:08.959Z,0
2017-01-30T04:29:49.439Z,0
2017-01-30T04:30:29.942Z,0
2017-01-30T04:31:10.475Z,0
2017-01-30T04:31:50.905Z,0
2017-01-30T04:32:31.402Z,0
2017-01-30T04:33:11.895Z,0
2017-01-30T04:33:52.370Z,0
2017-01-30T04:34:32.857Z,0
2017-01-30T04:35:13.333Z,0
2017-01-30T04:35:53.812Z,0
2017-01-30T04:36:34.325Z,0
2017-01-30T04:37:14.751Z,0
2017-01-30T04:37:55.243Z,0
2017-01-30T04:38:35.741Z,0
2017-01-30T04:39:16.211Z,0
2017-01-30T04:39:56.699Z,0
2017-01-30T04:40:37.183Z,0
2017-01-30T04:41:17.674Z,0
2017-01-30T04:41:58.126Z,0
2017-01-30T04:42:38.658Z,0
2017-01-30T04:43:19.123Z,0
2017-01-30T04:43:59.615Z,0
2017-01-30T04:44:40.047Z,0
2017-01-30T04:45:20.658Z,0
2017-01-30T04:46:01.096Z,0
2017-01-30T04:46:41.588Z,0
2017-01-30T04:47:22.123Z,0
2017-01-30T04:48:02.591Z,0
2017-01-30T04:48:43.075Z,0
2017-01-30T04:49:23.530Z,0
2017-01-30T04:50:04.043Z,0
2017-01-30T04:50:44.535Z,0
2017-01-30T04:51:25.010Z,0
2017-01-30T04:52:05.518Z,0
2017-01-30T04:52:45.971Z,0
2017-01-30T04:53:26.472Z,0
2017-01-30T04:54:06.983Z,0
2017-01-30T04:54:47.459Z,0
2017-01-30T04:55:27.928Z,0
2017-01-30T04:56:08.452Z,0
2017-01-30T04:56:48.955Z,0
2017-01-30T04:57:29.474Z,0
2017-01-30T04:58:09.977Z,0
2017-01-30T04:58:50.475Z,0
2017-01-30T04:59:30.974Z,0
2017-01-30T05:00:11.459Z,0
2017-01-30T05:00:51.904Z,0
2017-01-30T05:01:32.412Z,0
2017-01-30T05:02:12.896Z,0
2017-01-30T05:02:53.390Z,0
2017-01-30T05:03:33.882Z,0
2017-01-30T05:04:14.352Z,0
2017-01-30T05:04:54.809Z,0
2017-01-30T05:05:35.322Z,0
2017-01-30T05:06:15.813Z,0
2017-01-30T05:06:56.399Z,0
2017-01-30T05:07:36.877Z,0
2017-01-30T05:08:17.351Z,0
2017-01-30T05:08:57.843Z,0
2017-01-30T05:09:38.345Z,0
2017-01-30T05:10:18.860Z,0
2017-01-30T05:10:59.319Z,0
2017-01-30T05:11:39.812Z,0
2017-01-30T05:12:20.318Z,0
2017-01-30T05:13:00.783Z,0
2017-01-30T05:13:41.263Z,0
2017-01-30T05:14:21.782Z,0
2017-01-30T05:15:02.251Z,0
2017-01-30T05:15:42.736Z,0
2017-01-30T05:16:23.238Z,0
2017-01-30T05:17:03.728Z,0
2017-01-30T05:17:44.206Z,0
2017-01-30T05:18:24.681Z,0
2017-01-30T05:19:05.175Z,0
2017-01-30T05:19:45.668Z,0
2017-01-30T05:20:26.136Z,0
2017-01-30T05:21:06.601Z,0
2017-01-30T05:21:47.095Z,0
2017-01-30T05:22:27.592Z,0
2017-01-30T05:23:08.069Z,0
2017-01-30T05:23:48.547Z,0
2017-01-30T05:24:29.022Z,0
2017-01-30T05:25:09.543Z,0
2017-01-30T05:25:50.041Z,0
2017-01-30T05:26:30.546Z,0
2017-01-30T05:27:10.970Z,0
2017-01-30T05:27:51.460Z,0
2017-01-30T05:28:32.032Z,0
2017-01-30T05:29:12.472Z,0
2017-01-30T05:29:52.963Z,0
2017-01-30T05:30:33.479Z,0
2017-01-30T05:31:13.930Z,0
2017-01-30T05:31:54.444Z,0
2017-01-30T05:32:34.907Z,0
2017-01-30T05:33:15.408Z,0
2017-01-30T05:33:55.863Z,0
2017-01-30T05:34:36.371Z,0
2017-01-30T05:35:16.828Z,0
2017-01-30T05:35:57.347Z,0
2017-01-30T05:36:37.840Z,0
2017-01-30T05:37:18.291Z,0
2017-01-30T05:37:58.777Z,0
2017-01-30T05:38:39.310Z,0
2017-01-30T05:39:19.759Z,0
2017-01-30T05:40:00.282Z,0
2017-01-30T05:40:40.788Z,0
2017-01-30T05:41:21.243Z,0
2017-01-30T05:42:01.729Z,0
2017-01-30T05:42:42.198Z,0
2017-01-30T05:43:22.703Z,0
2017-01-30T05:44:03.219Z,0
2017-01-30T05:44:43.706Z,0
2017-01-30T05:45:24.184Z,0
2017-01-30T05:46:04.622Z,0
2017-01-30T05:46:45.119Z,0
2017-01-30T05:47:25.584Z,0
2017-01-30T05:48:06.109Z,0
2017-01-30T05:48:46.595Z,0
2017-01-30T05:49:27.088Z,0
2017-01-30T05:50:07.581Z,0
2017-01-30T05:50:48.091Z,0
2017-01-30T05:51:28.565Z,0
2017-01-30T05:52:09.036Z,0
2017-01-30T05:52:49.578Z,0
2017-01-30T05:53:30.044Z,0
2017-01-30T05:54:10.578Z,0
2017-01-30T05:54:51.012Z,0
2017-01-30T05:55:31.532Z,0
2017-01-30T05:56:12.038Z,0
2017-01-30T05:56:52.495Z,0
2017-01-30T05:57:33.007Z,0
2017-01-30T05:58:13.540Z,0
2017-01-30T05:58:54.035Z,0
2017-01-30T05:59:34.507Z,0
2017-01-30T06:00:14.997Z,0
2017-01-30T06:00:55.545Z,0
2017-01-30T06:01:35.940Z,0
2017-01-30T06:02:16.499Z,0
2017-01-30T06:02:56.967Z,0
2017-01-30T06:03:37.488Z,0
2017-01-30T06:04:17.948Z,0
2017-01-30T06:04:58.462Z,0
2017-01-30T06:05:38.970Z,0
2017-01-30T06:06:19.463Z,0
2017-01-30T06:07:00.007Z,0
2017-01-30T06:07:40.550Z,0
2017-01-30T06:08:21.055Z,0
2017-01-30T06:09:01.532Z,0
2017-01-30T06:09:42.042Z,0
2017-01-30T06:10:22.491Z,0
2017-01-30T06:11:03.020Z,0
2017-01-30T06:11:43.505Z,0
2017-01-30T06:12:24.040Z,0
2017-01-30T06:13:04.503Z,0
2017-01-30T06:13:44.940Z,0
2017-01-30T06:14:25.464Z,0
2017-01-30T06:15:06.715Z,0
2017-01-30T06:15:47.344Z,0
2017-01-30T06:16:27.815Z,0
2017-01-30T06:17:08.307Z,0
2017-01-30T06:17:52.671Z,0
2017-01-30T06:18:33.153Z,0
2017-01-30T06:19:13.692Z,0
2017-01-30T06:19:54.138Z,0
2017-01-30T06:20:34.636Z,0
2017-01-30T06:21:15.145Z,0
2017-01-30T06:21:55.643Z,0
2017-01-30T06:22:36.138Z,0
2017-01-30T06:23:16.647Z,0
2017-01-30T06:23:57.112Z,0
2017-01-30T06:24:37.595Z,0
2017-01-30T06:25:18.136Z,0
2017-01-30T06:25:58.556Z,0
2017-01-30T06:26:39.140Z,0
2017-01-30T06:27:19.765Z,0
2017-01-30T06:28:00.248Z,0
2017-01-30T06:28:40.724Z,0
2017-01-30T06:29:21.239Z,0
2017-01-30T06:30:01.762Z,0
2017-01-30T06:30:42.338Z,0
2017-01-30T06:31:22.833Z,0
2017-01-30T06:32:03.336Z,0
2017-01-30T06:32:52.152Z,0
2017-01-30T06:33:32.753Z,0
2017-01-30T06:34:13.328Z,0
2017-01-30T06:34:53.722Z,0
2017-01-30T06:35:35.520Z,0
2017-01-30T06:36:15.902Z,0
2017-01-30T06:36:56.258Z,0
2017-01-30T06:37:36.988Z,4
2017-01-30T06:38:17.510Z,4
2017-01-30T06:38:58.292Z,4
2017-01-30T06:39:38.843Z,4
2017-01-30T06:40:19.324Z,4
2017-01-30T06:40:59.859Z,0
2017-01-30T06:41:40.501Z,4
2017-01-30T06:42:20.986Z,4
2017-01-30T06:43:01.484Z,4
2017-01-30T06:43:42.516Z,4
2017-01-30T06:44:22.896Z,4
2017-01-30T06:45:03.410Z,4
2017-01-30T06:45:43.899Z,4
2017-01-30T06:48:19.835Z,4
2017-01-30T06:49:00.347Z,8
2017-01-30T06:49:40.855Z,8
2017-01-30T06:50:21.374Z,8
2017-01-30T06:51:01.823Z,12
2017-01-30T06:51:42.407Z,12
2017-01-30T06:52:22.898Z,12
2017-01-30T06:53:03.353Z,16
2017-01-30T06:53:43.819Z,16
2017-01-30T06:54:24.320Z,20
2017-01-30T06:55:04.863Z,24
2017-01-30T06:55:45.364Z,24
2017-01-30T06:56:26.005Z,28
2017-01-30T06:57:06.510Z,28
2017-01-30T06:57:46.967Z,32
2017-01-30T06:58:27.513Z,32
2017-01-30T06:59:08.005Z,32
2017-01-30T06:59:48.473Z,32
2017-01-30T07:00:29.007Z,32
2017-01-30T07:01:09.443Z,32
2017-01-30T07:01:49.924Z,32
2017-01-30T07:02:30.433Z,32
2017-01-30T07:03:10.939Z,36
2017-01-30T07:03:51.444Z,36
2017-01-30T07:04:31.935Z,40
2017-01-30T07:05:12.407Z,44
2017-01-30T07:05:52.876Z,44
2017-01-30T07:06:34.047Z,48
2017-01-30T07:07:14.423Z,48
2017-01-30T07:07:54.931Z,56
2017-01-30T07:08:35.452Z,56
2017-01-30T07:09:15.915Z,60
2017-01-30T07:09:56.404Z,64
2017-01-30T07:10:36.958Z,68
2017-01-30T07:11:17.331Z,68
2017-01-30T07:11:57.800Z,76
2017-01-30T07:12:38.382Z,76
2017-01-30T07:13:18.852Z,80
2017-01-30T07:13:59.352Z,76
2017-01-30T07:14:39.847Z,76
2017-01-30T07:15:20.341Z,80
2017-01-30T07:16:00.835Z,84
2017-01-30T07:16:41.323Z,88
2017-01-30T07:17:21.911Z,92
2017-01-30T07:18:02.369Z,96
2017-01-30T07:18:42.920Z,104
2017-01-30T07:19:23.376Z,112
2017-01-30T07:20:03.834Z,124
2017-01-30T07:20:44.319Z,136
2017-01-30T07:21:24.835Z,152
2017-01-30T07:22:05.319Z,168
2017-01-30T07:22:45.739Z,184
2017-01-30T07:23:26.344Z,204
2017-01-30T07:24:09.387Z,228
2017-01-30T07:24:49.940Z,252
2017-01-30T07:25:30.406Z,276
2017-01-30T07:26:11.039Z,304
2017-01-30T07:26:51.488Z,348
2017-01-30T07:27:32.021Z,396
2017-01-30T07:28:12.600Z,444
2017-01-30T07:28:53.143Z,492
2017-01-30T07:29:33.635Z,540
2017-01-30T07:30:14.624Z,576
2017-01-30T07:30:55.228Z,592
2017-01-30T07:31:38.036Z,560
2017-01-30T07:32:18.536Z,516
2017-01-30T07:32:59.017Z,460
2017-01-30T07:33:39.943Z,420
2017-01-30T07:34:20.408Z,388
2017-01-30T07:35:00.861Z,396
2017-01-30T07:35:41.350Z,416
2017-01-30T07:36:21.810Z,448
2017-01-30T07:37:02.377Z,492
2017-01-30T07:37:42.846Z,544
2017-01-30T07:38:23.336Z,596
2017-01-30T07:39:03.775Z,644
2017-01-30T07:39:44.286Z,696
2017-01-30T07:40:24.747Z,736
2017-01-30T07:41:05.459Z,756
2017-01-30T07:41:45.892Z,768
2017-01-30T07:42:26.342Z,752
2017-01-30T07:43:06.870Z,752
2017-01-30T07:43:47.336Z,740
2017-01-30T07:44:27.852Z,728
2017-01-30T07:45:08.312Z,720
2017-01-30T07:45:48.796Z,704
2017-01-30T07:46:29.273Z,692
2017-01-30T07:47:09.786Z,676
2017-01-30T07:47:50.223Z,652
2017-01-30T07:48:30.707Z,628
2017-01-30T07:49:11.225Z,604
2017-01-30T07:49:51.705Z,548
2017-01-30T07:50:32.198Z,520
2017-01-30T07:51:12.682Z,500
2017-01-30T07:51:53.147Z,468
2017-01-30T07:52:33.665Z,436
2017-01-30T07:53:14.122Z,412
2017-01-30T07:53:54.606Z,392
2017-01-30T07:54:35.105Z,384
2017-01-30T07:55:15.557Z,380
2017-01-30T07:55:56.041Z,380
2017-01-30T07:56:36.544Z,388
2017-01-30T07:57:17.020Z,396
2017-01-30T07:57:57.490Z,412
2017-01-30T07:58:38.011Z,428
2017-01-30T07:59:18.466Z,452
2017-01-30T07:59:58.979Z,472
2017-01-30T08:00:39.467Z,492
2017-01-30T08:01:19.966Z,516
2017-01-30T08:02:00.451Z,544
2017-01-30T08:02:40.979Z,568
2017-01-30T08:03:21.429Z,596
2017-01-30T08:04:01.908Z,628
2017-01-30T08:04:42.422Z,624
2017-01-30T08:05:22.907Z,636
2017-01-30T08:06:03.376Z,596
2017-01-30T08:06:43.841Z,596
2017-01-30T08:07:24.329Z,612
2017-01-30T08:08:04.801Z,632
2017-01-30T08:08:45.288Z,632
2017-01-30T08:09:25.779Z,620
2017-01-30T08:10:06.273Z,636
2017-01-30T08:10:46.770Z,628
2017-01-30T08:11:27.326Z,624
2017-01-30T08:12:07.824Z,600
2017-01-30T08:12:48.293Z,556
2017-01-30T08:13:28.780Z,520
2017-01-30T08:14:09.343Z,484
2017-01-30T08:14:49.796Z,464
2017-01-30T08:15:30.613Z,444
2017-01-30T08:16:11.104Z,416
2017-01-30T08:16:51.587Z,412
2017-01-30T08:17:32.077Z,420
2017-01-30T08:18:12.566Z,428
2017-01-30T08:18:53.106Z,436
2017-01-30T08:19:33.554Z,452
2017-01-30T08:20:14.122Z,472
2017-01-30T08:20:54.551Z,492
2017-01-30T08:21:35.058Z,512
2017-01-30T08:22:15.545Z,524
2017-01-30T08:22:56.072Z,532
2017-01-30T08:23:36.549Z,540
2017-01-30T08:24:17.048Z,544
2017-01-30T08:24:57.543Z,556
2017-01-30T08:25:38.057Z,572
2017-01-30T08:26:18.564Z,592
2017-01-30T08:26:59.041Z,616
2017-01-30T08:27:39.580Z,644
2017-01-30T08:28:20.039Z,676
2017-01-30T08:29:00.548Z,708
2017-01-30T08:29:41.070Z,736
2017-01-30T08:30:21.546Z,748
2017-01-30T08:31:02.036Z,768
2017-01-30T08:31:42.519Z,796
2017-01-30T08:32:23.030Z,840
2017-01-30T08:33:03.500Z,864
2017-01-30T08:33:43.988Z,864
2017-01-30T08:34:24.536Z,884
2017-01-30T08:35:04.987Z,900
2017-01-30T08:35:45.505Z,920
2017-01-30T08:36:25.987Z,912
2017-01-30T08:37:06.444Z,912
2017-01-30T08:37:46.951Z,932
2017-01-30T08:38:27.435Z,940
2017-01-30T08:39:07.936Z,936
2017-01-30T08:39:48.448Z,900
2017-01-30T08:40:28.958Z,900
2017-01-30T08:41:09.413Z,936
2017-01-30T08:41:49.893Z,940
2017-01-30T08:42:30.392Z,940
2017-01-30T08:43:10.887Z,944
2017-01-30T08:43:51.398Z,988
2017-01-30T08:44:31.869Z,1000
2017-01-30T08:45:12.381Z,996
2017-01-30T08:45:52.845Z,1000
2017-01-30T08:46:33.328Z,1052
2017-01-30T08:47:13.813Z,1148
2017-01-30T08:47:54.317Z,1216
2017-01-30T08:48:34.840Z,1208
2017-01-30T08:49:15.321Z,1232
2017-01-30T08:49:55.825Z,1200
2017-01-30T08:50:36.308Z,1144
2017-01-30T08:51:16.781Z,1108
2017-01-30T08:51:57.272Z,1104
2017-01-30T08:52:37.786Z,1104
2017-01-30T08:53:18.269Z,1104
2017-01-30T08:53:58.822Z,1084
2017-01-30T08:54:39.356Z,1076
2017-01-30T08:55:19.790Z,1072
2017-01-30T08:56:00.303Z,1080
2017-01-30T08:56:40.783Z,1092
2017-01-30T08:57:21.299Z,1112
2017-01-30T08:58:01.746Z,1136
2017-01-30T08:58:42.259Z,1136
2017-01-30T08:59:22.723Z,1124
2017-01-30T09:00:03.231Z,1116
2017-01-30T09:00:43.763Z,1108
2017-01-30T09:01:24.255Z,1100
2017-01-30T09:02:04.751Z,1092
2017-01-30T09:02:45.247Z,1096
2017-01-30T09:03:25.751Z,1104
2017-01-30T09:04:06.299Z,1100
2017-01-30T09:04:46.749Z,1064
2017-01-30T09:05:27.248Z,1024
2017-01-30T09:06:07.736Z,1016
2017-01-30T09:06:48.204Z,1020
2017-01-30T09:07:28.696Z,1016
2017-01-30T09:08:09.182Z,964
2017-01-30T09:08:49.723Z,908
2017-01-30T09:09:30.197Z,872
2017-01-30T09:10:10.693Z,860
2017-01-30T09:10:51.196Z,860
2017-01-30T09:11:31.680Z,856
2017-01-30T09:12:12.152Z,852
2017-01-30T09:12:52.656Z,840
2017-01-30T09:13:33.157Z,836
2017-01-30T09:14:13.634Z,836
2017-01-30T09:14:54.163Z,856
2017-01-30T09:15:34.644Z,880
2017-01-30T09:16:15.117Z,920
2017-01-30T09:16:55.615Z,976
2017-01-30T09:17:36.096Z,1032
2017-01-30T09:18:16.652Z,1104
2017-01-30T09:18:57.169Z,1200
2017-01-30T09:19:37.639Z,1336
2017-01-30T09:20:18.184Z,1480
2017-01-30T09:20:58.634Z,1632
2017-01-30T09:21:39.130Z,1800
2017-01-30T09:22:19.598Z,1992
2017-01-30T09:23:00.086Z,2116
2017-01-30T09:23:40.543Z,2080
2017-01-30T09:24:21.065Z,1948
2017-01-30T09:25:01.523Z,1800
2017-01-30T09:25:42.018Z,1672
2017-01-30T09:26:22.516Z,1568
2017-01-30T09:27:02.983Z,1472
2017-01-30T09:27:43.485Z,1428
2017-01-30T09:28:23.968Z,1396
2017-01-30T09:29:04.431Z,1364
2017-01-30T09:29:44.922Z,1348
2017-01-30T09:30:25.415Z,1364
2017-01-30T09:31:05.908Z,1384
2017-01-30T09:31:46.411Z,1404
2017-01-30T09:32:26.906Z,1428
2017-01-30T09:33:07.420Z,1444
2017-01-30T09:33:47.906Z,1476
2017-01-30T09:34:28.418Z,1516
2017-01-30T09:35:08.886Z,1536
2017-01-30T09:35:49.391Z,1560
2017-01-30T09:36:29.912Z,1588
2017-01-30T09:37:10.379Z,1576
2017-01-30T09:37:50.872Z,1532
2017-01-30T09:38:31.360Z,1488
2017-01-30T09:39:11.827Z,1444
2017-01-30T09:39:52.324Z,1404
2017-01-30T09:40:32.815Z,1344
2017-01-30T09:41:13.316Z,1272
2017-01-30T09:41:53.800Z,1212
2017-01-30T09:42:34.344Z,1188
2017-01-30T09:43:14.849Z,1184
2017-01-30T09:43:55.319Z,1188
2017-01-30T09:44:35.805Z,1200
2017-01-30T09:45:16.306Z,1200
2017-01-30T09:45:56.799Z,1184
2017-01-30T09:46:37.325Z,1172
2017-01-30T09:47:17.802Z,1168
2017-01-30T09:47:58.323Z,1180
2017-01-30T09:48:38.808Z,1188
2017-01-30T09:49:19.284Z,1180
2017-01-30T09:49:59.766Z,1176